createdAt,value
2022-12-08T00:01:22.528Z,-0.47
2022-12-08T00:06:22.523Z,-0.37
2022-12-08T00:11:22.535Z,-0.32
2022-12-08T00:16:22.538Z,-0.26
2022-12-08T00:21:22.545Z,-0.63
2022-12-08T00:26:22.585Z,-0.24
2022-12-08T00:31:22.573Z,-0.26
2022-12-08T00:36:22.573Z,-0.35
2022-12-08T00:41:22.713Z,-0.21
2022-12-08T00:46:22.617Z,-0.55
2022-12-08T00:51:22.948Z,-0.51
2022-12-08T00:56:22.522Z,-0.33
2022-12-08T01:01:22.820Z,-0.20
2022-12-08T01:06:22.800Z,-0.14
2022-12-08T01:11:22.543Z,-0.12
2022-12-08T01:16:22.836Z,-0.15
2022-12-08T01:21:22.601Z,-0.21
2022-12-08T01:31:23.241Z,-0.36
2022-12-08T01:36:22.660Z,-0.55
2022-12-08T01:41:22.822Z,-0.34
2022-12-08T01:46:22.713Z,-0.11
2022-12-08T01:51:22.828Z,0.09
2022-12-08T02:01:22.865Z,-0.05
2022-12-08T02:06:22.580Z,-0.17
2022-12-08T02:11:22.737Z,-0.30
2022-12-08T02:16:22.940Z,-0.18
2022-12-08T02:21:22.541Z,-0.09
2022-12-08T02:26:22.865Z,0.02
2022-12-08T02:31:22.729Z,0.05
2022-12-08T02:36:22.837Z,0.15
2022-12-08T02:41:22.629Z,0.11
2022-12-08T02:46:22.897Z,-0.02
2022-12-08T02:51:22.594Z,0.01
2022-12-08T02:56:22.574Z,0.00
2022-12-08T03:01:22.653Z,-0.16
2022-12-08T03:06:22.571Z,-0.07
2022-12-08T03:11:22.597Z,-0.02
2022-12-08T03:16:22.686Z,0.16
2022-12-08T03:21:22.837Z,0.11
2022-12-08T03:26:22.646Z,-0.18
2022-12-08T03:31:22.726Z,-0.02
2022-12-08T03:36:22.665Z,0.02
2022-12-08T03:41:22.783Z,0.00
2022-12-08T03:51:22.720Z,0.05
2022-12-08T03:56:22.610Z,0.15
2022-12-08T04:01:23.112Z,0.18
2022-12-08T04:11:22.970Z,0.14
2022-12-08T04:16:22.745Z,0.02
2022-12-08T04:21:22.668Z,0.08
2022-12-08T04:31:22.978Z,0.12
2022-12-08T04:36:22.792Z,0.05
2022-12-08T04:41:22.624Z,0.03
2022-12-08T04:46:22.702Z,0.04
2022-12-08T04:51:22.634Z,0.11
2022-12-08T04:56:22.714Z,0.17
2022-12-08T05:01:22.934Z,0.22
2022-12-08T05:06:22.699Z,0.18
2022-12-08T05:11:22.836Z,0.28
2022-12-08T05:16:22.703Z,0.07
2022-12-08T05:21:22.784Z,0.13
2022-12-08T05:26:22.618Z,0.22
2022-12-08T05:31:22.883Z,0.19
2022-12-08T05:36:22.639Z,0.31
2022-12-08T05:41:22.699Z,0.28
2022-12-08T05:46:22.710Z,0.13
2022-12-08T05:51:22.723Z,0.21
2022-12-08T05:56:22.669Z,0.18
2022-12-08T06:01:22.614Z,0.12
2022-12-08T06:06:22.685Z,0.10
2022-12-08T06:11:22.632Z,0.24
2022-12-08T06:16:22.691Z,0.32
2022-12-08T06:21:22.671Z,0.33
2022-12-08T06:26:22.744Z,0.57
2022-12-08T06:31:22.922Z,0.52
2022-12-08T06:41:22.883Z,0.63
2022-12-08T06:46:22.755Z,0.59
2022-12-08T06:51:22.842Z,0.69
2022-12-08T06:56:22.720Z,0.74
2022-12-08T07:01:23.006Z,0.88
2022-12-08T07:06:22.966Z,0.95
2022-12-08T07:11:22.960Z,0.97
2022-12-08T07:16:22.930Z,0.81
2022-12-08T07:21:22.676Z,0.84
2022-12-08T07:26:22.670Z,0.94
2022-12-08T07:31:22.816Z,0.99
2022-12-08T07:36:22.878Z,1.13
2022-12-08T07:41:23.609Z,1.08
2022-12-08T07:46:22.892Z,1.18
2022-12-08T07:51:23.238Z,1.23
2022-12-08T07:56:22.765Z,1.30
2022-12-08T08:01:22.826Z,1.43
2022-12-08T08:06:22.692Z,1.46
2022-12-08T08:11:22.904Z,1.28
2022-12-08T08:16:22.806Z,1.47
2022-12-08T08:21:44.505Z,1.74
2022-12-08T08:26:22.725Z,1.86
2022-12-08T08:31:22.935Z,1.81
2022-12-08T08:36:22.840Z,1.89
2022-12-08T08:41:22.740Z,2.06
2022-12-08T08:46:22.799Z,2.22
2022-12-08T08:51:22.718Z,2.14
2022-12-08T08:56:22.721Z,2.40
2022-12-08T09:01:22.732Z,2.31
2022-12-08T09:06:22.904Z,2.43
2022-12-08T09:11:23.054Z,2.49
2022-12-08T09:16:22.819Z,2.60
2022-12-08T09:21:23.291Z,2.66
2022-12-08T09:26:22.830Z,2.75
2022-12-08T09:31:23.067Z,2.71
2022-12-08T09:36:22.696Z,2.86
2022-12-08T09:41:23.109Z,2.95
2022-12-08T09:46:22.822Z,3.01
2022-12-08T09:51:22.783Z,3.00
2022-12-08T09:56:22.855Z,3.03
2022-12-08T10:01:22.818Z,2.98
2022-12-08T10:06:23.048Z,2.85
2022-12-08T10:11:22.881Z,3.02
2022-12-08T10:16:29.304Z,3.17
2022-12-08T10:21:22.851Z,3.22
2022-12-08T10:26:22.765Z,3.27
2022-12-08T10:31:22.902Z,3.26
2022-12-08T10:36:22.939Z,3.32
2022-12-08T10:41:22.797Z,3.41
2022-12-08T10:46:22.912Z,3.39
2022-12-08T10:51:22.737Z,3.29
2022-12-08T10:56:22.897Z,3.41
2022-12-08T11:01:22.829Z,3.36
2022-12-08T11:06:22.847Z,3.56
2022-12-08T11:11:27.692Z,3.65
2022-12-08T11:16:22.871Z,3.74
2022-12-08T11:21:22.962Z,3.67
2022-12-08T11:26:22.809Z,3.64
2022-12-08T11:31:22.860Z,3.61
2022-12-08T11:36:22.807Z,3.70
2022-12-08T11:41:22.881Z,3.72
2022-12-08T11:46:22.887Z,3.81
2022-12-08T11:51:22.891Z,3.92
2022-12-08T11:56:22.770Z,3.87
2022-12-08T12:01:22.815Z,3.94
2022-12-08T12:11:22.830Z,4.00
2022-12-08T12:16:22.946Z,4.13
2022-12-08T12:21:23.085Z,4.26
2022-12-08T12:26:22.918Z,4.25
2022-12-08T12:31:23.083Z,4.18
2022-12-08T12:36:22.757Z,4.15
2022-12-08T12:41:25.499Z,4.07
2022-12-08T12:46:22.912Z,4.02
2022-12-08T12:51:22.996Z,4.03
2022-12-08T12:56:22.831Z,4.04
2022-12-08T13:01:23.033Z,4.11
2022-12-08T13:06:23.134Z,4.10
2022-12-08T13:11:22.928Z,4.12
2022-12-08T13:16:22.788Z,4.10
2022-12-08T13:21:22.931Z,4.13
2022-12-08T13:26:23.032Z,4.18
2022-12-08T13:31:22.917Z,4.00
2022-12-08T13:36:22.840Z,4.01
2022-12-08T13:41:22.833Z,4.00
2022-12-08T13:47:09.309Z,3.96
2022-12-08T13:53:10.339Z,3.94
2022-12-08T13:57:02.398Z,3.92
2022-12-08T14:01:23.151Z,3.86
2022-12-08T14:06:22.861Z,3.93
2022-12-08T14:11:22.834Z,3.89
2022-12-08T14:16:23.001Z,3.70
2022-12-08T14:21:23.029Z,3.82
2022-12-08T14:26:22.894Z,3.80
2022-12-08T14:31:23.033Z,3.70
2022-12-08T14:36:23.249Z,3.63
2022-12-08T14:46:23.288Z,3.66
2022-12-08T14:51:22.821Z,3.65
2022-12-08T14:56:23.096Z,3.73
2022-12-08T15:01:22.894Z,3.69
2022-12-08T15:06:22.885Z,3.66
2022-12-08T15:11:22.903Z,3.57
2022-12-08T15:16:22.998Z,3.66
2022-12-08T15:21:23.192Z,3.63
2022-12-08T15:26:22.889Z,3.61
2022-12-08T15:36:23.273Z,3.55
2022-12-08T15:41:23.146Z,3.56
2022-12-08T15:46:22.983Z,3.52
2022-12-08T15:51:22.904Z,3.57
2022-12-08T16:12:03.926Z,3.70
2022-12-08T16:16:23.182Z,3.77
2022-12-08T16:21:53.278Z,3.81
2022-12-08T16:27:35.219Z,3.57
2022-12-08T16:31:23.481Z,3.63
2022-12-08T16:36:22.881Z,3.73
2022-12-08T16:41:22.911Z,3.61
2022-12-08T16:46:22.912Z,3.66
2022-12-08T16:51:26.804Z,3.57
2022-12-08T16:56:28.743Z,3.84
2022-12-08T17:01:22.975Z,3.70
2022-12-08T17:06:23.083Z,3.79
2022-12-08T17:11:23.170Z,3.78
2022-12-08T17:16:23.048Z,3.59
2022-12-08T17:21:22.959Z,3.64
2022-12-08T17:26:22.908Z,3.70
2022-12-08T17:31:27.787Z,3.72
2022-12-08T17:36:23.345Z,3.60
2022-12-08T17:41:23.063Z,3.68
2022-12-08T17:46:23.014Z,3.64
2022-12-08T17:51:23.045Z,3.57
2022-12-08T17:56:23.205Z,3.64
2022-12-08T18:01:23.452Z,3.44
2022-12-08T18:06:25.726Z,3.55
2022-12-08T18:11:23.225Z,3.60
2022-12-08T18:16:23.216Z,3.63
2022-12-08T18:21:23.549Z,3.64
2022-12-08T18:26:23.218Z,3.58
2022-12-08T18:36:23.970Z,3.76
2022-12-08T18:41:22.956Z,3.59
2022-12-08T18:46:23.358Z,3.53
2022-12-08T18:51:23.415Z,3.75
2022-12-08T18:56:23.092Z,3.85
2022-12-08T19:01:24.477Z,3.75
2022-12-08T19:06:22.952Z,3.78
2022-12-08T19:11:23.040Z,3.74
2022-12-08T19:16:23.285Z,3.71
2022-12-08T19:21:23.110Z,3.82
2022-12-08T19:26:24.464Z,3.65
2022-12-08T19:31:23.416Z,3.58
2022-12-08T19:36:23.190Z,3.73
2022-12-08T19:41:23.255Z,3.86
2022-12-08T19:46:23.228Z,3.75
2022-12-08T19:51:24.275Z,3.81
2022-12-08T19:56:23.893Z,3.75
2022-12-08T20:01:23.402Z,3.87
2022-12-08T20:06:23.371Z,3.75
2022-12-08T20:11:23.198Z,3.71
2022-12-08T20:16:23.425Z,3.70
2022-12-08T20:21:23.684Z,3.79
2022-12-08T20:26:23.074Z,3.66
2022-12-08T20:31:23.463Z,3.73
2022-12-08T20:36:23.097Z,3.72
2022-12-08T20:41:24.067Z,3.58
2022-12-08T20:46:24.268Z,3.72
2022-12-08T20:51:28.441Z,3.77
2022-12-08T20:56:23.650Z,3.81
2022-12-08T21:06:23.330Z,3.73
2022-12-08T21:11:23.063Z,3.88
2022-12-08T21:16:23.392Z,3.82
2022-12-08T21:21:23.243Z,3.74
2022-12-08T21:26:23.257Z,3.63
2022-12-08T21:31:23.633Z,3.66
2022-12-08T21:36:23.310Z,3.67
2022-12-08T21:41:23.272Z,3.44
2022-12-08T21:46:23.093Z,3.28
2022-12-08T21:51:23.105Z,3.29
2022-12-08T21:56:23.484Z,3.33
2022-12-08T22:01:23.131Z,3.34
2022-12-08T22:06:23.204Z,3.19
2022-12-08T22:11:23.065Z,3.36
2022-12-08T22:16:23.397Z,3.35
2022-12-08T22:21:23.102Z,3.29
2022-12-08T22:26:23.087Z,3.34
2022-12-08T22:31:23.434Z,3.53
2022-12-08T22:36:23.373Z,3.56
2022-12-08T22:41:23.305Z,3.43
2022-12-08T22:46:23.417Z,3.48
2022-12-08T22:51:23.115Z,3.59
2022-12-08T22:56:23.234Z,3.46
2022-12-08T23:01:23.554Z,3.44
2022-12-08T23:06:23.489Z,3.38
2022-12-08T23:11:23.504Z,3.33
2022-12-08T23:16:23.249Z,3.52
2022-12-08T23:21:23.412Z,3.33
2022-12-08T23:26:23.034Z,3.15
2022-12-08T23:31:23.577Z,3.18
2022-12-08T23:36:23.092Z,3.10
2022-12-08T23:41:23.109Z,3.16
2022-12-08T23:46:23.193Z,3.15
2022-12-08T23:51:23.040Z,3.20
2022-12-08T23:56:29.904Z,3.12
